Time;durP1;ratioP1;P1;durP2;ratioP2;P2;SDS_P1;SDS_P2;PMS_P1;PMS_P2;Temp;Humidity;BMP_temperature;BMP_pressure;BME280_temperature;BME280_humidity;BME280_pressure;Samples;Min_cycle;Max_cycle;Signal;HPM_P1;HPM_P2
2021/03/29 00:00:01;;;;;;;2.72;2.45;;;;;;;16.91;32.40;97519.91;5046671;28;20572;-57
2021/03/29 00:02:27;;;;;;;3.33;3.03;;;;;;;16.89;32.41;97519.31;5046437;28;20080;-57
2021/03/29 00:04:53;;;;;;;2.50;2.30;;;;;;;16.88;32.46;97514.94;5051986;28;20076;-57
2021/03/29 00:07:19;;;;;;;2.20;2.00;;;;;;;16.88;32.32;97523.91;5069294;28;20040;-58
2021/03/29 00:09:45;;;;;;;2.47;2.13;;;;;;;16.86;32.37;97517.91;5050906;28;20052;-57
2021/03/29 00:12:10;;;;;;;3.08;2.50;;;;;;;16.82;32.44;97522.13;5049865;28;20063;-57
2021/03/29 00:14:36;;;;;;;2.42;2.10;;;;;;;16.84;32.50;97520.03;5050027;28;20059;-57
2021/03/29 00:17:02;;;;;;;2.55;1.80;;;;;;;16.82;32.45;97527.53;5065897;28;20072;-57
2021/03/29 00:19:29;;;;;;;2.40;2.20;;;;;;;16.82;32.44;97527.53;5065648;28;20059;-57
2021/03/29 00:21:55;;;;;;;2.00;1.90;;;;;;;16.81;32.40;97523.16;5067928;28;20075;-57
2021/03/29 00:24:21;;;;;;;2.30;2.03;;;;;;;16.79;32.35;97519.84;5066400;28;20083;-57
2021/03/29 00:26:46;;;;;;;2.45;2.20;;;;;;;16.78;32.44;97529.84;5067208;28;20080;-57
2021/03/29 00:29:12;;;;;;;2.05;1.90;;;;;;;16.76;32.36;97521.13;5066095;28;20076;-57
2021/03/29 00:31:37;;;;;;;2.20;2.08;;;;;;;16.73;32.36;97513.50;5066116;28;20058;-57
2021/03/29 00:34:04;;;;;;;2.15;1.95;;;;;;;16.75;32.39;97524.06;5065756;28;20044;-57
2021/03/29 00:36:29;;;;;;;2.88;2.10;;;;;;;16.74;32.46;97519.72;5066069;28;20078;-57
2021/03/29 00:38:55;;;;;;;2.05;1.90;;;;;;;16.74;32.45;97520.53;5049833;28;20048;-57
2021/03/29 00:41:21;;;;;;;1.88;1.77;;;;;;;16.74;32.33;97527.84;5065898;28;20044;-57
2021/03/29 00:43:46;;;;;;;3.15;2.10;;;;;;;16.71;32.37;97520.16;5049128;28;20535;-57
2021/03/29 00:46:12;;;;;;;1.80;1.70;;;;;;;16.72;31.99;97522.66;5065696;28;20072;-55
2021/03/29 00:48:38;;;;;;;2.10;1.90;;;;;;;16.70;32.25;97523.94;5048788;28;20412;-54
2021/03/29 00:51:07;;;;;;;2.10;1.63;;;;;;;16.68;32.29;97524.16;5048570;28;20159;-54
2021/03/29 00:53:32;;;;;;;2.28;2.08;;;;;;;16.67;32.28;97530.66;5075374;28;20052;-54
2021/03/29 00:55:58;;;;;;;2.10;1.90;;;;;;;16.65;32.33;97524.63;5087752;28;20068;-55
2021/03/29 00:58:24;;;;;;;2.55;2.10;;;;;;;16.65;32.26;97526.50;5068951;28;20040;-55
2021/03/29 01:00:57;;;;;;;2.17;1.98;;;;;;;16.63;32.10;97524.03;5086895;28;20082;-55
2021/03/29 01:03:29;;;;;;;2.92;1.90;;;;;;;16.63;32.27;97529.44;5086035;28;20043;-54
2021/03/29 01:06:00;;;;;;;2.08;1.90;;;;;;;16.61;32.28;97524.25;5074450;28;20809;-55
2021/03/29 01:08:26;;;;;;;2.75;1.88;;;;;;;16.60;32.33;97522.59;5066215;28;20079;-54
2021/03/29 01:10:53;;;;;;;2.65;1.77;;;;;;;16.59;32.34;97523.66;5049039;28;20594;-55
2021/03/29 01:13:19;;;;;;;1.90;1.70;;;;;;;16.45;32.40;97503.28;5067237;28;20047;-58
2021/03/29 01:15:45;;;;;;;2.25;1.50;;;;;;;16.58;32.38;97527.41;5066353;28;20543;-56
2021/03/29 01:18:13;;;;;;;1.88;1.63;;;;;;;16.55;32.37;97529.78;5065096;28;20714;-56
2021/03/29 01:20:58;;;;;;;2.00;1.80;;;;;;;16.56;32.42;97526.00;5065439;28;20044;-56
2021/03/29 01:23:28;;;;;;;2.15;1.73;;;;;;;16.55;32.52;97527.06;5051749;28;20098;-56
2021/03/29 01:26:16;;;;;;;2.30;1.60;;;;;;;16.51;32.49;97521.28;5048683;28;20392;-56
2021/03/29 01:28:41;;;;;;;2.42;1.90;;;;;;;16.51;32.39;97526.69;5065399;28;20052;-56
2021/03/29 01:31:07;;;;;;;2.08;1.85;;;;;;;16.49;32.56;97517.16;5048395;28;20044;-56
2021/03/29 01:33:33;;;;;;;2.00;1.90;;;;;;;16.48;32.42;97516.34;5064715;28;20056;-56
2021/03/29 01:35:59;;;;;;;2.20;1.85;;;;;;;16.49;32.42;97517.97;5065309;28;20611;-56
2021/03/29 01:38:26;;;;;;;1.67;1.55;;;;;;;16.48;32.45;97510.09;5065121;28;20523;-56
2021/03/29 01:40:51;;;;;;;2.03;1.80;;;;;;;16.45;32.47;97515.97;5066479;28;20049;-56
2021/03/29 01:43:17;;;;;;;1.65;1.55;;;;;;;16.47;32.42;97514.69;5065607;28;20047;-56
2021/03/29 01:45:44;;;;;;;1.73;1.63;;;;;;;16.45;32.32;97511.38;5065517;28;20059;-56
2021/03/29 01:48:10;;;;;;;1.75;1.65;;;;;;;16.42;32.39;97507.25;5066519;28;20138;-56
2021/03/29 01:50:38;;;;;;;1.75;1.65;;;;;;;16.42;32.34;97507.25;5066315;28;20393;-56
2021/03/29 01:53:05;;;;;;;2.15;1.63;;;;;;;16.41;32.27;97508.31;5068319;28;20043;-55
2021/03/29 01:55:33;;;;;;;1.70;1.60;;;;;;;16.40;32.39;97505.84;5085170;28;20051;-56
2021/03/29 01:58:00;;;;;;;2.30;1.65;;;;;;;16.39;32.35;97504.19;5084495;28;20051;-55
2021/03/29 02:00:32;;;;;;;2.42;2.00;;;;;;;16.38;32.46;97510.66;5084862;28;20048;-55
2021/03/29 02:02:59;;;;;;;1.60;1.50;;;;;;;16.38;32.28;97506.06;5082701;28;20059;-55
2021/03/29 02:05:28;;;;;;;2.00;1.83;;;;;;;16.36;32.38;97505.47;5067871;28;20534;-56
2021/03/29 02:07:54;;;;;;;2.15;1.60;;;;;;;16.33;32.19;97499.69;5085497;28;20048;-56
2021/03/29 02:10:22;;;;;;;1.50;1.40;;;;;;;16.33;32.26;97508.63;5052595;28;20076;-55
2021/03/29 02:12:47;;;;;;;1.63;1.52;;;;;;;16.34;32.31;97498.66;5066035;28;20043;-56
2021/03/29 02:15:15;;;;;;;2.63;1.58;;;;;;;16.32;32.32;97504.28;5065509;28;20048;-55
2021/03/29 02:17:44;;;;;;;1.50;1.40;;;;;;;16.30;32.33;97498.28;5065993;28;20083;-56
2021/03/29 02:20:17;;;;;;;2.10;1.58;;;;;;;16.28;32.26;97500.38;5048270;28;20056;-55
2021/03/29 02:22:48;;;;;;;1.98;1.60;;;;;;;16.28;32.35;97492.28;5065586;28;20512;-55
2021/03/29 02:25:18;;;;;;;1.90;1.70;;;;;;;16.28;32.18;97494.16;5064827;28;20420;-55
2021/03/29 02:27:47;;;;;;;1.80;1.40;;;;;;;16.28;32.10;97496.84;5064635;28;20072;-55
2021/03/29 02:30:17;;;;;;;1.70;1.60;;;;;;;16.27;32.12;97493.34;5064162;28;20060;-55
2021/03/29 02:32:43;;;;;;;1.35;1.30;;;;;;;16.25;32.27;97495.44;5065736;28;20106;-56
2021/03/29 02:35:10;;;;;;;1.65;1.55;;;;;;;16.24;32.14;97493.78;5066178;28;20389;-55
2021/03/29 02:37:37;;;;;;;1.50;1.40;;;;;;;16.23;32.20;97491.28;5063970;28;20080;-55
2021/03/29 02:40:05;;;;;;;1.67;1.58;;;;;;;16.23;32.20;97494.00;5065337;28;20056;-55
2021/03/29 02:42:33;;;;;;;1.60;1.50;;;;;;;16.20;32.14;97484.47;5065118;28;20048;-55
2021/03/29 02:45:05;;;;;;;1.85;1.60;;;;;;;16.20;32.27;97488.00;5045337;28;20516;-56
2021/03/29 02:47:32;;;;;;;1.73;1.63;;;;;;;16.19;32.27;97483.66;5048719;28;20049;-56
2021/03/29 02:49:57;;;;;;;1.92;1.42;;;;;;;16.19;32.24;97485.53;5047249;28;20045;-55
2021/03/29 02:52:23;;;;;;;2.42;1.60;;;;;;;16.18;32.32;97487.41;5047624;28;20049;-56
2021/03/29 02:54:49;;;;;;;1.77;1.42;;;;;;;16.17;32.29;97488.47;5086061;28;20072;-56
2021/03/29 02:57:15;;;;;;;1.52;1.42;;;;;;;16.15;32.22;97482.47;5071535;28;20546;-55
2021/03/29 02:59:40;;;;;;;1.60;1.45;;;;;;;16.14;32.32;97485.38;5070649;28;20505;-55
2021/03/29 03:02:07;;;;;;;2.42;1.88;;;;;;;16.11;32.39;97483.97;5089385;28;20059;-55
2021/03/29 03:04:33;;;;;;;1.77;1.58;;;;;;;16.12;32.34;97482.91;5087956;28;20677;-55
2021/03/29 03:06:58;;;;;;;2.08;1.85;;;;;;;16.10;32.40;97476.91;5089334;28;20059;-55
2021/03/29 03:09:24;;;;;;;1.75;1.65;;;;;;;16.06;32.35;97475.69;5071324;28;20457;-55
2021/03/29 03:11:50;;;;;;;1.55;1.45;;;;;;;16.08;32.33;97470.91;5088461;28;20051;-55
2021/03/29 03:14:16;;;;;;;2.58;2.10;;;;;;;16.09;32.28;97479.84;5088312;28;20071;-55
2021/03/29 03:16:42;;;;;;;1.27;1.17;;;;;;;16.08;32.36;97480.88;5071497;28;20055;-55
2021/03/29 03:19:07;;;;;;;2.33;1.50;;;;;;;16.07;32.40;97476.56;5088102;28;20105;-55
2021/03/29 03:21:33;;;;;;;1.65;1.40;;;;;;;16.02;32.61;97471.81;5088759;28;20747;-55
2021/03/29 03:23:59;;;;;;;1.52;1.42;;;;;;;16.05;32.57;97473.25;5089540;28;20058;-55
2021/03/29 03:26:25;;;;;;;1.38;1.30;;;;;;;16.04;32.63;97472.41;5088529;28;20048;-55
2021/03/29 03:28:51;;;;;;;1.45;1.30;;;;;;;16.04;32.54;97474.28;5088042;28;20059;-56
2021/03/29 03:31:17;;;;;;;2.35;1.70;;;;;;;16.02;32.60;97469.09;5089245;28;20052;-55
2021/03/29 03:33:43;;;;;;;1.60;1.50;;;;;;;16.01;32.68;97472.88;5089357;28;20135;-55
2021/03/29 03:36:08;;;;;;;1.70;1.60;;;;;;;15.99;32.63;97469.56;5088674;28;20058;-55
2021/03/29 03:38:35;;;;;;;1.50;1.40;;;;;;;15.99;32.54;97473.09;5087583;28;20047;-55
2021/03/29 03:41:01;;;;;;;1.60;1.50;;;;;;;16.00;32.71;97476.63;5087230;28;20044;-55
2021/03/29 03:43:32;;;;;;;1.95;1.85;;;;;;;15.98;32.67;97476.03;5088376;28;20415;-56
2021/03/29 03:46:09;;;;;;;1.52;1.40;;;;;;;15.97;32.84;97467.09;5088282;28;20044;-56
2021/03/29 03:48:34;;;;;;;1.48;1.30;;;;;;;15.97;32.67;97477.09;5070790;28;20044;-56
2021/03/29 03:51:00;;;;;;;2.05;1.33;;;;;;;15.96;32.63;97476.25;5070185;28;20046;-56
2021/03/29 03:53:27;;;;;;;1.38;1.38;;;;;;;15.95;32.80;97474.59;5080046;28;20052;-56
2021/03/29 03:55:56;;;;;;;1.55;1.40;;;;;;;15.93;32.75;97467.78;5067824;28;20044;-56
2021/03/29 03:58:22;;;;;;;1.55;1.45;;;;;;;15.93;32.79;97471.28;5068534;28;20049;-56
2021/03/29 04:00:48;;;;;;;1.45;1.35;;;;;;;15.91;32.73;97468.00;5068631;28;20094;-56
2021/03/29 04:03:14;;;;;;;1.40;1.30;;;;;;;15.90;32.74;97469.06;5066513;28;20131;-55
2021/03/29 04:05:40;;;;;;;1.27;1.17;;;;;;;15.89;32.81;97467.41;5068013;28;20743;-56
2021/03/29 04:08:06;;;;;;;1.40;1.30;;;;;;;15.88;32.71;97468.47;5067583;28;20055;-56
2021/03/29 04:10:43;;;;;;;1.00;1.00;;;;;;;15.89;32.80;97471.97;5069381;28;20808;-55
2021/03/29 04:13:22;;;;;;;2.05;1.75;;;;;;;15.88;32.63;97481.16;5067692;28;20052;-55
2021/03/29 04:15:48;;;;;;;1.50;1.40;;;;;;;15.85;32.74;97473.47;5068026;28;20048;-56
2021/03/29 04:18:13;;;;;;;1.60;1.48;;;;;;;15.84;32.62;97471.84;5067322;28;20106;-56
2021/03/29 04:20:39;;;;;;;1.52;1.40;;;;;;;15.85;32.70;97471.59;5066463;28;20084;-55
2021/03/29 04:23:05;;;;;;;2.13;1.60;;;;;;;15.84;32.70;97469.97;5068315;28;20080;-55
2021/03/29 04:25:30;;;;;;;1.63;1.35;;;;;;;15.82;32.83;97469.38;5067757;28;20094;-56
2021/03/29 04:27:56;;;;;;;1.33;1.23;;;;;;;15.80;32.61;97464.19;5066023;28;20045;-56
2021/03/29 04:30:22;;;;;;;1.30;1.20;;;;;;;15.80;32.77;97471.47;5067409;28;20127;-56
2021/03/29 04:32:48;;;;;;;2.17;1.40;;;;;;;15.79;32.75;97472.50;5068613;28;20127;-56
2021/03/29 04:35:14;;;;;;;1.60;1.50;;;;;;;15.79;32.71;97473.34;5067368;28;20076;-55
2021/03/29 04:37:41;;;;;;;1.35;1.27;;;;;;;15.76;32.81;97471.09;5065827;28;20048;-56
2021/03/29 04:40:07;;;;;;;1.70;1.60;;;;;;;15.77;32.86;97474.59;5067755;28;20397;-56
2021/03/29 04:42:32;;;;;;;1.50;1.40;;;;;;;15.76;32.73;97475.66;5067326;28;20113;-56
2021/03/29 04:44:58;;;;;;;1.55;1.45;;;;;;;15.76;32.74;97481.88;5067226;28;20040;-57
2021/03/29 04:47:24;;;;;;;1.38;1.27;;;;;;;15.74;32.75;97481.28;5067012;28;20578;-56
2021/03/29 04:49:50;;;;;;;2.05;1.40;;;;;;;15.73;32.71;97476.13;5068167;28;20079;-55
2021/03/29 04:52:16;;;;;;;1.40;1.30;;;;;;;15.73;32.68;97482.34;5066429;28;20044;-55
2021/03/29 04:54:41;;;;;;;1.50;1.40;;;;;;;15.72;32.76;97486.09;5082218;28;20491;-55
2021/03/29 04:57:07;;;;;;;1.65;1.45;;;;;;;15.71;32.78;97487.13;5088568;28;20113;-55
2021/03/29 04:59:33;;;;;;;1.52;1.42;;;;;;;15.70;32.73;97488.16;5086777;28;20047;-55
2021/03/29 05:01:58;;;;;;;2.08;1.20;;;;;;;15.69;32.72;97489.22;5086830;28;20052;-55
2021/03/29 05:04:24;;;;;;;1.42;1.33;;;;;;;15.69;32.88;97485.72;5087101;28;20043;-55
2021/03/29 05:06:50;;;;;;;1.27;1.17;;;;;;;15.68;32.82;97489.44;5087544;28;20099;-55
2021/03/29 05:09:15;;;;;;;1.38;1.25;;;;;;;15.67;32.97;97490.50;5086467;28;20526;-55
2021/03/29 05:14:14;;;;;;;1.00;1.00;;;;;;;15.64;32.86;97494.47;5087050;28;20070;-55
2021/03/29 05:16:40;;;;;;;1.77;1.35;;;;;;;15.64;33.00;97499.84;5085709;28;20136;-55
2021/03/29 05:19:05;;;;;;;2.28;1.40;;;;;;;15.63;32.93;97489.31;5086764;28;20055;-55
2021/03/29 05:21:31;;;;;;;1.48;1.25;;;;;;;15.61;32.98;97497.63;5085859;28;20180;-55
2021/03/29 05:23:57;;;;;;;1.63;1.40;;;;;;;15.58;33.00;97490.81;5087101;28;20105;-55
2021/03/29 05:26:22;;;;;;;1.50;1.40;;;;;;;15.60;32.93;97499.50;5086504;28;20047;-55
2021/03/29 05:28:48;;;;;;;3.08;1.60;;;;;;;15.58;33.10;97484.56;5087640;28;20048;-54
2021/03/29 05:31:13;;;;;;;1.48;1.38;;;;;;;15.59;32.99;97488.91;5086899;28;20043;-55
2021/03/29 05:33:39;;;;;;;1.83;1.63;;;;;;;15.57;33.11;97491.84;5086224;28;20101;-55
2021/03/29 05:36:10;;;;;;;1.92;1.55;;;;;;;15.56;33.16;97497.44;5086077;28;20059;-55
2021/03/29 05:38:36;;;;;;;1.38;1.27;;;;;;;15.56;33.13;97497.44;5086442;28;20043;-55
2021/03/29 05:41:02;;;;;;;1.77;1.20;;;;;;;15.54;33.08;97495.00;5086446;28;20048;-55
2021/03/29 05:43:28;;;;;;;1.55;1.30;;;;;;;15.53;33.08;97495.22;5086544;28;20126;-55
2021/03/29 05:45:53;;;;;;;1.40;1.30;;;;;;;15.53;33.18;97498.72;5068383;28;20056;-56
2021/03/29 05:48:19;;;;;;;1.30;1.15;;;;;;;15.52;33.21;97505.19;5085728;28;20079;-55
2021/03/29 05:50:44;;;;;;;1.67;1.20;;;;;;;15.52;33.06;97501.66;5086196;28;20101;-55
2021/03/29 05:53:10;;;;;;;1.00;1.00;;;;;;;15.50;33.30;97499.19;5080514;28;20048;-54
2021/03/29 05:55:39;;;;;;;1.02;1.02;;;;;;;15.49;33.32;97505.63;5066264;28;20075;-55
2021/03/29 05:58:30;;;;;;;1.30;1.30;;;;;;;15.50;33.31;97506.44;5065853;28;20053;-55
2021/03/29 06:00:51;;;;;;;1.48;1.38;;;;;;;15.46;33.26;97510.66;5065815;28;20044;-56
2021/03/29 06:03:36;;;;;;;1.20;1.20;;;;;;;15.50;33.23;97511.84;5069671;28;20036;-56
2021/03/29 06:06:07;;;;;;;1.42;1.33;;;;;;;15.49;33.20;97507.50;5065995;28;20048;-55
2021/03/29 06:08:33;;;;;;;1.40;1.30;;;;;;;15.49;33.23;97513.72;5065209;28;20068;-56
2021/03/29 06:10:59;;;;;;;1.52;1.30;;;;;;;15.50;33.22;97519.94;5047948;28;20056;-55
2021/03/29 06:13:29;;;;;;;1.20;1.20;;;;;;;15.50;33.26;97518.09;5065828;28;20143;-55
2021/03/29 06:16:06;;;;;;;1.60;1.45;;;;;;;15.51;33.20;97521.59;5065688;28;20079;-55
2021/03/29 06:18:32;;;;;;;1.70;1.60;;;;;;;15.50;33.26;97518.09;5065525;28;20083;-55
2021/03/29 06:21:06;;;;;;;1.20;1.20;;;;;;;15.50;33.37;97526.19;5065655;28;20084;-56
2021/03/29 06:23:32;;;;;;;2.50;1.30;;;;;;;15.48;33.20;97527.47;5065474;28;20052;-55
2021/03/29 06:26:26;;;;;;;1.35;1.25;;;;;;;15.48;33.33;97528.28;5065460;28;20059;-56
2021/03/29 06:28:52;;;;;;;1.45;1.35;;;;;;;15.49;33.25;97535.31;5065107;28;20060;-55
2021/03/29 06:31:31;;;;;;;1.55;1.30;;;;;;;15.56;33.41;97528.00;5065565;28;20078;-56
2021/03/29 06:33:58;;;;;;;1.63;1.08;;;;;;;15.66;33.29;97535.56;5064192;28;20056;-55
2021/03/29 06:36:43;;;;;;;1.23;1.13;;;;;;;15.72;33.26;97539.28;5063980;28;20586;-55
2021/03/29 06:39:16;;;;;;;1.67;1.58;;;;;;;15.74;33.16;97534.50;5044048;28;20120;-55
2021/03/29 06:41:53;;;;;;;1.48;1.38;;;;;;;15.67;33.40;97526.44;5044617;28;20048;-56
2021/03/29 06:44:30;;;;;;;1.63;1.23;;;;;;;15.79;33.39;97545.44;5045361;28;20049;-56
2021/03/29 06:47:10;;;;;;;1.02;1.02;;;;;;;15.83;33.32;97545.81;5059277;28;20083;-55
2021/03/29 06:49:37;;;;;;;1.75;1.65;;;;;;;15.86;33.48;97542.69;5065627;28;20060;-55
2021/03/29 06:52:24;;;;;;;1.27;1.17;;;;;;;15.87;33.37;97545.16;5066310;28;20049;-55
2021/03/29 06:54:50;;;;;;;1.52;1.10;;;;;;;15.75;33.37;97526.19;5074533;28;20048;-55
2021/03/29 06:57:29;;;;;;;1.20;1.10;;;;;;;15.91;33.53;97548.22;5065707;28;20060;-55
2021/03/29 06:59:55;;;;;;;1.08;0.98;;;;;;;15.94;33.56;97555.91;5083598;28;20174;-56
2021/03/29 07:02:40;;;;;;;1.40;1.30;;;;;;;15.93;33.50;97552.34;5083469;28;20045;-56
2021/03/29 07:05:07;;;;;;;2.63;1.30;;;;;;;15.95;33.75;97555.66;5080352;28;20048;-55
2021/03/29 07:07:33;;;;;;;1.30;1.20;;;;;;;15.97;33.67;97547.34;5064732;28;20143;-55
2021/03/29 07:10:00;;;;;;;1.80;1.20;;;;;;;16.00;33.67;97555.00;5052861;28;20247;-55
2021/03/29 07:12:27;;;;;;;1.92;1.50;;;;;;;16.00;33.58;97555.00;5064373;28;20123;-56
2021/03/29 07:14:53;;;;;;;1.50;1.40;;;;;;;16.01;33.71;97560.16;5063514;28;20056;-56
2021/03/29 07:17:18;;;;;;;2.05;1.20;;;;;;;16.04;33.84;97552.66;5064672;28;20173;-55
2021/03/29 07:19:44;;;;;;;1.42;1.08;;;;;;;16.05;33.95;97557.84;5045647;28;20083;-55
2021/03/29 07:22:10;;;;;;;1.20;1.10;;;;;;;16.09;33.78;97571.75;5064931;28;20269;-56
2021/03/29 07:24:35;;;;;;;1.65;1.30;;;;;;;16.09;33.79;97558.22;5064631;28;20843;-56
2021/03/29 07:27:01;;;;;;;2.05;1.30;;;;;;;16.11;33.82;97566.94;5064910;28;20060;-55
2021/03/29 07:29:32;;;;;;;1.55;1.40;;;;;;;16.15;33.81;97574.34;5063011;28;20063;-56
2021/03/29 07:31:59;;;;;;;1.27;1.25;;;;;;;16.14;33.85;97574.56;5048848;28;20059;-56
2021/03/29 07:35:00;;;;;;;1.23;1.23;;;;;;;16.16;33.92;97572.47;5068230;28;20048;-56
2021/03/29 07:37:36;;;;;;;1.67;1.10;;;;;;;16.18;33.92;97573.06;5005221;28;20129;-56
2021/03/29 07:40:06;;;;;;;1.10;1.10;;;;;;;16.20;34.08;97579.09;5059398;28;20055;-56
2021/03/29 07:42:32;;;;;;;1.30;1.20;;;;;;;16.21;34.31;97576.16;5068443;28;20479;-57
2021/03/29 07:45:03;;;;;;;1.30;1.20;;;;;;;16.24;34.31;97574.06;5068774;28;20477;-56
2021/03/29 07:47:55;;;;;;;1.23;1.20;;;;;;;16.24;34.42;97574.88;5067843;28;20044;-56
2021/03/29 07:50:26;;;;;;;2.03;1.20;;;;;;;16.27;34.50;97579.00;5068418;28;20048;-57
2021/03/29 07:52:56;;;;;;;2.05;1.33;;;;;;;16.28;34.68;97584.19;5068859;28;20050;-55
2021/03/29 07:55:44;;;;;;;1.60;1.50;;;;;;;16.31;34.72;97588.31;5068299;28;20442;-56
2021/03/29 07:58:16;;;;;;;1.88;1.23;;;;;;;16.27;35.41;97585.25;5067490;28;20306;-55
2021/03/29 08:00:43;;;;;;;2.13;1.52;;;;;;;16.28;35.78;97580.66;5070692;28;20048;-55
2021/03/29 08:03:11;;;;;;;1.80;1.70;;;;;;;16.26;36.15;97583.59;5067186;28;20519;-55
2021/03/29 08:05:44;;;;;;;3.38;2.00;;;;;;;16.23;36.31;97589.47;5056435;28;20044;-55
2021/03/29 08:11:06;;;;;;;2.15;1.95;;;;;;;16.29;35.84;97585.00;5068604;28;20048;-57
2021/03/29 08:13:52;;;;;;;2.70;1.95;;;;;;;16.28;36.10;97592.28;5067649;28;20052;-55
2021/03/29 08:16:24;;;;;;;2.70;2.40;;;;;;;16.32;36.02;97600.78;5068710;28;20052;-55
2021/03/29 08:19:07;;;;;;;2.40;1.90;;;;;;;16.34;35.96;97598.69;5068410;28;20087;-57
2021/03/29 08:22:04;;;;;;;3.85;1.75;;;;;;;16.35;35.86;97603.84;5067705;28;20052;-55
2021/03/29 08:24:42;;;;;;;4.03;1.92;;;;;;;16.37;35.78;97611.75;5067939;28;20698;-55
2021/03/29 08:27:28;;;;;;;2.70;1.83;;;;;;;16.37;35.66;97617.97;5067130;28;20125;-55
2021/03/29 08:29:55;;;;;;;;;;;;;;;16.40;35.79;97611.31;5067382;28;20079;-58
2021/03/29 08:32:24;;;;;;;15.00;5.40;;;;;;;16.56;35.60;97617.97;5067059;28;19942;-57
2021/03/29 08:34:55;;;;;;;7.00;3.00;;;;;;;16.54;35.95;97623.59;5067717;28;20060;-56
2021/03/29 08:37:23;;;;;;;6.10;2.10;;;;;;;16.43;36.39;97618.94;5058557;28;20760;-57
2021/03/29 08:39:49;;;;;;;7.40;2.25;;;;;;;16.41;36.50;97618.34;5064468;28;20062;-57
2021/03/29 08:42:17;;;;;;;3.80;1.88;;;;;;;16.41;36.51;97615.66;5062916;28;20424;-56
2021/03/29 08:44:44;;;;;;;3.67;1.80;;;;;;;16.35;36.53;97611.13;5046966;28;20049;-56
2021/03/29 08:47:14;;;;;;;1.70;1.60;;;;;;;16.35;36.56;97620.06;5046030;28;20402;-57
2021/03/29 08:49:40;;;;;;;2.33;1.70;;;;;;;16.35;36.27;97616.53;5047409;28;20048;-56
2021/03/29 08:52:05;;;;;;;4.97;2.28;;;;;;;16.35;36.15;97617.38;5047182;28;20071;-57
2021/03/29 08:54:31;;;;;;;4.25;1.95;;;;;;;16.37;36.47;97612.56;5077861;28;20048;-56
2021/03/29 08:57:05;;;;;;;2.85;1.75;;;;;;;16.37;36.32;97619.84;5086722;28;20054;-56
2021/03/29 08:59:30;;;;;;;2.72;1.90;;;;;;;16.37;36.26;97625.25;5086729;28;20413;-56
2021/03/29 09:01:56;;;;;;;2.83;2.22;;;;;;;16.38;36.26;97618.81;5085463;28;20044;-56
2021/03/29 09:04:22;;;;;;;1.75;1.65;;;;;;;16.38;35.97;97616.94;5085495;28;20624;-56
2021/03/29 09:06:56;;;;;;;2.50;1.98;;;;;;;16.40;36.02;97619.41;5087694;28;20479;-56
2021/03/29 09:09:22;;;;;;;1.98;1.50;;;;;;;16.40;35.97;97624.81;5085399;28;20185;-56
2021/03/29 09:11:49;;;;;;;4.22;1.98;;;;;;;16.42;35.94;97631.66;5087229;28;20051;-56
2021/03/29 09:14:15;;;;;;;3.38;1.80;;;;;;;16.44;36.10;97631.44;5086034;28;20048;-57
2021/03/29 09:16:43;;;;;;;3.25;2.10;;;;;;;16.48;36.25;97631.78;5086597;28;20451;-56
2021/03/29 09:19:19;;;;;;;2.42;1.98;;;;;;;16.50;36.32;97629.69;5065571;28;20052;-57
2021/03/29 09:21:51;;;;;;;2.17;1.95;;;;;;;16.39;36.29;97615.03;5064184;28;20045;-56
2021/03/29 09:24:17;;;;;;;2.55;1.80;;;;;;;16.51;36.46;97634.88;5066673;28;20044;-57
2021/03/29 09:26:43;;;;;;;2.63;1.85;;;;;;;16.51;36.54;97637.56;5069480;28;20146;-57
2021/03/29 09:29:31;;;;;;;3.78;1.95;;;;;;;16.50;36.37;97632.38;5065622;28;20135;-57
2021/03/29 09:32:15;;;;;;;2.45;1.63;;;;;;;16.54;36.43;97637.09;5062734;28;20048;-57
2021/03/29 09:34:49;;;;;;;3.55;1.60;;;;;;;16.56;36.24;97631.47;5049648;28;20083;-58
2021/03/29 09:37:27;;;;;;;6.55;1.88;;;;;;;16.56;36.19;97637.72;5064362;28;20102;-57
2021/03/29 09:40:04;;;;;;;6.03;3.55;;;;;;;16.57;36.50;97633.97;5065522;28;20594;-58
2021/03/29 09:42:43;;;;;;;6.10;3.63;;;;;;;16.57;36.64;97642.06;5064730;28;20060;-57
2021/03/29 09:45:15;;;;;;;5.50;3.53;;;;;;;16.59;36.27;97639.16;5065542;28;20056;-57
2021/03/29 09:47:41;;;;;;;7.72;3.42;;;;;;;16.60;36.32;97641.63;5047621;28;20086;-57
2021/03/29 09:50:09;;;;;;;6.38;3.92;;;;;;;16.61;36.37;97639.75;5065561;28;20638;-58
2021/03/29 09:52:40;;;;;;;9.32;3.80;;;;;;;16.63;36.25;97643.06;5065254;28;20880;-57
2021/03/29 09:55:07;;;;;;;7.28;3.95;;;;;;;16.64;36.31;97643.88;5043451;28;20045;-57
2021/03/29 09:57:41;;;;;;;7.03;3.55;;;;;;;16.65;36.33;97649.06;5045430;28;20066;-58
2021/03/29 10:00:11;;;;;;;7.68;3.47;;;;;;;16.67;36.13;97646.97;5045637;28;20061;-58
2021/03/29 10:02:36;;;;;;;10.18;3.60;;;;;;;16.67;36.18;97640.69;5045806;28;20049;-58
2021/03/29 10:05:10;;;;;;;4.72;3.13;;;;;;;16.70;36.00;97648.38;5065068;28;20051;-57
2021/03/29 10:07:50;;;;;;;4.70;2.83;;;;;;;16.70;36.14;97651.09;5065331;28;20055;-57
2021/03/29 10:10:29;;;;;;;6.22;3.00;;;;;;;16.71;36.15;97656.28;5064989;28;20044;-58
2021/03/29 10:13:12;;;;;;;5.63;2.72;;;;;;;16.73;35.81;97647.91;5063363;28;20059;-58
2021/03/29 10:15:39;;;;;;;5.10;2.67;;;;;;;16.74;35.97;97650.41;5046068;28;20087;-58
2021/03/29 10:18:14;;;;;;;4.88;2.15;;;;;;;16.75;35.76;97651.22;5064170;28;20475;-58
2021/03/29 10:20:41;;;;;;;4.97;3.00;;;;;;;16.76;35.67;97648.28;5063945;28;20055;-58
2021/03/29 10:23:27;;;;;;;5.85;3.00;;;;;;;16.78;35.87;97650.78;5065780;28;20547;-58
2021/03/29 10:26:20;;;;;;;6.03;2.63;;;;;;;16.78;35.78;97651.59;5067171;28;20055;-58
2021/03/29 10:28:57;;;;;;;6.38;2.25;;;;;;;16.81;35.75;97644.94;5063804;28;20052;-57
2021/03/29 10:31:23;;;;;;;3.17;2.33;;;;;;;16.82;35.55;97652.00;5064360;28;20080;-58
2021/03/29 10:33:49;;;;;;;4.28;2.50;;;;;;;16.84;35.42;97643.63;5065372;28;20075;-58
2021/03/29 10:36:15;;;;;;;4.60;2.63;;;;;;;16.86;35.47;97638.81;5067827;28;20132;-57
2021/03/29 10:38:41;;;;;;;3.95;2.25;;;;;;;16.87;35.64;97640.50;5082036;28;20052;-58
2021/03/29 10:41:07;;;;;;;3.95;2.50;;;;;;;16.88;35.55;97645.69;5085323;28;20233;-57
2021/03/29 10:43:33;;;;;;;4.00;2.30;;;;;;;16.89;35.66;97632.97;5067615;28;20087;-58
2021/03/29 10:45:59;;;;;;;3.40;2.33;;;;;;;16.92;35.68;97633.34;5065951;28;20119;-58
2021/03/29 10:48:24;;;;;;;5.28;2.60;;;;;;;16.92;35.70;97630.63;5065013;28;20150;-58
2021/03/29 10:50:50;;;;;;;4.28;2.05;;;;;;;16.94;35.56;97644.78;5067304;28;20080;-58
2021/03/29 10:53:16;;;;;;;2.75;2.03;;;;;;;16.96;35.52;97630.97;5068947;28;20388;-58
2021/03/29 10:55:41;;;;;;;2.83;2.17;;;;;;;16.96;35.50;97631.84;5066067;28;20076;-57
2021/03/29 10:58:07;;;;;;;4.55;2.05;;;;;;;16.99;35.19;97636.78;5066016;28;20052;-58
2021/03/29 11:00:32;;;;;;;4.55;2.25;;;;;;;17.00;35.47;97633.03;5065445;28;20045;-58
2021/03/29 11:02:58;;;;;;;4.38;1.90;;;;;;;17.06;35.58;97633.97;5064213;28;20523;-57
2021/03/29 11:05:24;;;;;;;5.70;2.17;;;;;;;17.10;35.83;97623.50;5063509;28;20028;-57
2021/03/29 11:07:50;;;;;;;3.17;1.77;;;;;;;17.09;35.90;97622.69;5067400;28;20048;-57
2021/03/29 11:10:15;;;;;;;4.65;2.08;;;;;;;17.10;35.63;97616.22;5051647;28;20056;-57
2021/03/29 11:12:41;;;;;;;3.30;1.77;;;;;;;17.12;35.67;97624.94;5067698;28;20101;-57
2021/03/29 11:15:07;;;;;;;3.60;1.83;;;;;;;17.13;35.35;97621.19;5068850;28;20481;-57
2021/03/29 11:17:35;;;;;;;3.15;1.73;;;;;;;17.15;34.97;97612.81;5068770;28;20519;-57
2021/03/29 11:20:00;;;;;;;2.92;1.63;;;;;;;17.16;35.25;97625.31;5068398;28;20044;-57
2021/03/29 11:22:26;;;;;;;3.60;1.75;;;;;;;17.17;34.92;97616.09;5069468;28;20051;-57
2021/03/29 11:24:52;;;;;;;1.80;1.67;;;;;;;17.18;34.87;97624.00;5068736;28;20085;-57
2021/03/29 11:27:17;;;;;;;4.15;2.20;;;;;;;17.19;34.85;97612.13;5069587;28;20041;-57
2021/03/29 11:29:43;;;;;;;3.60;1.65;;;;;;;17.22;34.90;97608.13;5068796;28;20143;-57
2021/03/29 11:32:08;;;;;;;2.15;1.73;;;;;;;17.22;35.12;97606.25;5068822;28;20052;-57
2021/03/29 11:34:34;;;;;;;2.65;1.80;;;;;;;17.25;35.12;97613.06;5068076;28;20060;-57
2021/03/29 11:36:59;;;;;;;2.72;2.00;;;;;;;17.27;34.98;97605.53;5068036;28;20068;-57
2021/03/29 11:39:25;;;;;;;2.53;1.92;;;;;;;17.27;35.23;97600.13;5068379;28;20099;-57
2021/03/29 11:41:50;;;;;;;2.80;1.80;;;;;;;17.29;34.94;97603.44;5068515;28;20135;-58
2021/03/29 11:44:16;;;;;;;2.63;1.73;;;;;;;17.30;34.87;97605.09;5069074;28;20044;-57
2021/03/29 11:46:42;;;;;;;2.53;1.65;;;;;;;17.32;35.08;97600.28;5068762;28;20072;-57